Time;durP1;ratioP1;P1;durP2;ratioP2;P2;SDS_P1;SDS_P2;PMS_P1;PMS_P2;Temp;Humidity;BMP_temperature;BMP_pressure;BME280_temperature;BME280_humidity;BME280_pressure;Samples;Min_cycle;Max_cycle;Signal;HPM_P1;HPM_P2
2022/11/09 11:32:40;;;;;;;1.00;0.70;;;14.90;96.30;;;;;;5069266;28;20548;-73
2022/11/09 11:35:35;;;;;;;1.40;0.87;;;14.90;96.30;;;;;;5069316;28;20462;-73
2022/11/09 11:38:25;;;;;;;3.07;0.90;;;14.80;96.30;;;;;;5069014;28;20398;-73
2022/11/09 11:41:21;;;;;;;1.63;0.97;;;14.90;96.30;;;;;;5067766;28;20443;-75
2022/11/09 11:44:04;;;;;;;1.47;0.83;;;14.80;96.30;;;;;;5069401;28;20489;-73
2022/11/09 11:46:46;;;;;;;1.07;0.77;;;14.80;96.30;;;;;;5069078;28;20482;-74
2022/11/09 11:49:35;;;;;;;0.90;0.70;;;14.90;96.30;;;;;;5069063;28;20397;-75
2022/11/09 11:52:00;;;;;;;2.83;0.90;;;14.90;96.30;;;;;;5069076;28;20464;-74
2022/11/09 11:54:59;;;;;;;0.90;0.70;;;14.80;96.30;;;;;;5069025;28;20405;-74
2022/11/09 11:57:51;;;;;;;6.90;1.10;;;14.80;96.30;;;;;;5067394;28;20187;-74
2022/11/09 12:00:19;;;;;;;1.40;1.00;;;14.70;96.30;;;;;;5068781;28;20471;-73
2022/11/09 12:03:13;;;;;;;2.17;0.80;;;14.70;96.30;;;;;;5068819;28;20406;-74
2022/11/09 12:05:49;;;;;;;1.73;0.90;;;14.70;96.30;;;;;;5068826;28;20409;-75
2022/11/09 12:08:22;;;;;;;1.00;0.80;;;14.70;96.30;;;;;;5068615;28;20433;-75
2022/11/09 12:11:01;;;;;;;0.90;0.67;;;14.80;96.30;;;;;;5068526;28;20468;-76
2022/11/09 12:13:40;;;;;;;3.03;0.70;;;14.60;96.30;;;;;;5068630;28;20734;-74
2022/11/09 12:16:12;;;;;;;1.00;0.80;;;14.60;96.30;;;;;;5067254;28;20417;-73
2022/11/09 12:18:49;;;;;;;0.90;0.77;;;14.70;96.30;;;;;;5068318;28;20459;-73
2022/11/09 12:21:36;;;;;;;1.20;1.00;;;14.70;96.30;;;;;;5067155;28;20425;-73
2022/11/09 12:24:25;;;;;;;1.77;1.03;;;14.60;96.30;;;;;;5068527;28;20425;-73
2022/11/09 12:27:19;;;;;;;1.00;0.90;;;14.60;96.30;;;;;;5060263;28;20787;-73
2022/11/09 12:29:54;;;;;;;1.10;0.90;;;14.50;96.30;;;;;;5048330;28;20414;-75
2022/11/09 12:32:34;;;;;;;1.80;1.00;;;14.50;96.30;;;;;;5053448;28;20476;-75
2022/11/09 12:35:22;;;;;;;1.10;0.87;;;14.60;96.30;;;;;;5067073;28;20397;-73
2022/11/09 12:38:19;;;;;;;1.50;1.20;;;14.60;96.30;;;;;;5066840;28;20401;-74
2022/11/09 12:41:00;;;;;;;1.87;1.13;;;14.90;96.30;;;;;;5065253;28;20448;-76
2022/11/09 12:43:33;;;;;;;1.47;0.90;;;15.00;96.30;;;;;;5056599;28;20414;-74
2022/11/09 12:45:59;;;;;;;1.20;0.83;;;15.10;96.30;;;;;;5053507;28;20928;-75
2022/11/09 12:48:33;;;;;;;2.00;0.90;;;15.20;96.30;;;;;;5052661;28;20410;-74
2022/11/09 12:51:01;;;;;;;6.30;4.70;;;15.30;96.30;;;;;;5050754;28;21024;-76
2022/11/09 12:53:34;;;;;;;15.17;9.10;;;15.40;96.30;;;;;;5040583;28;20790;-75
2022/11/09 12:56:06;;;;;;;1.77;0.90;;;15.10;96.30;;;;;;5046995;28;20417;-72
2022/11/09 12:58:34;;;;;;;1.30;1.10;;;15.10;96.30;;;;;;5052539;28;20406;-74
2022/11/09 13:01:26;;;;;;;1.73;0.90;;;15.30;96.30;;;;;;5053048;28;20425;-73
2022/11/09 13:03:54;;;;;;;1.37;1.00;;;15.20;96.30;;;;;;5052357;28;20422;-74
2022/11/09 13:06:24;;;;;;;1.77;1.00;;;15.30;96.30;;;;;;5052731;28;20476;-76
2022/11/09 13:09:05;;;;;;;0.90;0.70;;;15.20;96.30;;;;;;5052659;28;20406;-73
2022/11/09 13:11:37;;;;;;;3.10;1.33;;;15.00;96.30;;;;;;5052693;28;20846;-73
2022/11/09 13:14:21;;;;;;;3.23;0.90;;;15.00;96.30;;;;;;5052979;28;20412;-74
2022/11/09 13:16:55;;;;;;;2.03;0.80;;;15.00;96.30;;;;;;5052185;28;20410;-73
2022/11/09 13:19:33;;;;;;;1.77;0.80;;;15.00;96.30;;;;;;5052506;28;20417;-73
2022/11/09 13:21:59;;;;;;;1.10;0.70;;;14.90;96.30;;;;;;5051781;28;20863;-74
2022/11/09 13:24:34;;;;;;;2.27;0.77;;;14.80;96.30;;;;;;5052787;28;20450;-73
2022/11/09 13:27:01;;;;;;;2.60;1.00;;;14.80;96.30;;;;;;5052087;28;20431;-74
2022/11/09 13:29:39;;;;;;;2.30;0.90;;;14.90;96.30;;;;;;5052677;28;20499;-75
2022/11/09 13:32:10;;;;;;;0.97;0.70;;;14.80;96.30;;;;;;5051901;28;20468;-74
2022/11/09 13:34:54;;;;;;;0.90;0.70;;;14.70;96.30;;;;;;5052246;28;20399;-74
2022/11/09 13:37:40;;;;;;;0.90;0.60;;;14.60;96.30;;;;;;5048005;28;20407;-75
2022/11/09 13:40:30;;;;;;;1.10;0.80;;;14.60;96.30;;;;;;5037724;28;20407;-74
2022/11/09 13:43:11;;;;;;;1.00;0.80;;;14.40;96.30;;;;;;5045241;28;20406;-73
2022/11/09 13:45:51;;;;;;;7.20;1.00;;;14.40;96.30;;;;;;5050548;28;20441;-74
2022/11/09 13:48:32;;;;;;;2.57;0.90;;;14.30;96.30;;;;;;5041185;28;20943;-74
2022/11/09 13:51:18;;;;;;;2.67;0.90;;;14.30;96.30;;;;;;5042267;28;20450;-74
2022/11/09 13:53:59;;;;;;;2.97;1.00;;;14.40;96.30;;;;;;5041002;28;20912;-75
2022/11/09 13:56:31;;;;;;;1.80;1.13;;;14.40;96.30;;;;;;5048436;28;20493;-73
2022/11/09 13:59:22;;;;;;;3.60;1.90;;;14.40;96.30;;;;;;5052927;28;20405;-73
2022/11/09 14:01:53;;;;;;;2.03;1.00;;;14.30;96.30;;;;;;5046867;28;20458;-76
2022/11/09 14:04:28;;;;;;;1.90;1.20;;;14.30;96.30;;;;;;5053379;28;20402;-73
2022/11/09 14:07:01;;;;;;;3.03;2.63;;;14.30;96.30;;;;;;5052816;28;20479;-74
2022/11/09 14:09:30;;;;;;;3.50;1.10;;;14.20;96.30;;;;;;5053285;28;20434;-73
2022/11/09 14:12:27;;;;;;;1.10;0.97;;;14.10;96.30;;;;;;5048288;28;20557;-73
2022/11/09 14:15:10;;;;;;;1.70;1.60;;;14.00;96.30;;;;;;5031760;28;20415;-74
